sensor_id;sensor_type;location;lat;lon;timestamp;P1;durP1;ratioP1;P2;durP2;ratioP2
29314;SDS011;16320;53.954;9.506;2024-03-23T00:53:47;19.92;;;4.68;;
29314;SDS011;16320;53.954;9.506;2024-03-23T00:56:14;30.52;;;5.63;;
29314;SDS011;16320;53.954;9.506;2024-03-23T00:58:40;30.33;;;5.05;;
29314;SDS011;16320;53.954;9.506;2024-03-23T01:01:07;38.53;;;6.03;;
29314;SDS011;16320;53.954;9.506;2024-03-23T01:03:33;36.00;;;4.55;;
29314;SDS011;16320;53.954;9.506;2024-03-23T01:06:02;26.23;;;4.80;;
29314;SDS011;16320;53.954;9.506;2024-03-23T01:08:29;28.75;;;4.95;;
29314;SDS011;16320;53.954;9.506;2024-03-23T01:10:57;34.10;;;5.68;;
29314;SDS011;16320;53.954;9.506;2024-03-23T01:13:26;36.17;;;4.18;;
29314;SDS011;16320;53.954;9.506;2024-03-23T01:15:55;26.45;;;4.32;;
29314;SDS011;16320;53.954;9.506;2024-03-23T01:18:22;20.35;;;3.95;;
29314;SDS011;16320;53.954;9.506;2024-03-23T01:20:51;29.67;;;4.22;;
29314;SDS011;16320;53.954;9.506;2024-03-23T01:23:17;29.40;;;4.45;;
29314;SDS011;16320;53.954;9.506;2024-03-23T01:25:51;28.00;;;4.90;;
29314;SDS011;16320;53.954;9.506;2024-03-23T01:28:19;38.42;;;6.30;;
29314;SDS011;16320;53.954;9.506;2024-03-23T01:30:49;31.25;;;4.25;;
29314;SDS011;16320;53.954;9.506;2024-03-23T01:33:15;28.60;;;4.43;;
29314;SDS011;16320;53.954;9.506;2024-03-23T01:35:42;28.40;;;5.20;;
29314;SDS011;16320;53.954;9.506;2024-03-23T01:38:09;26.60;;;4.32;;
29314;SDS011;16320;53.954;9.506;2024-03-23T01:40:36;31.67;;;4.93;;
29314;SDS011;16320;53.954;9.506;2024-03-23T01:43:06;29.75;;;4.38;;
29314;SDS011;16320;53.954;9.506;2024-03-23T01:45:34;27.30;;;3.50;;
29314;SDS011;16320;53.954;9.506;2024-03-23T01:48:01;28.27;;;4.15;;
29314;SDS011;16320;53.954;9.506;2024-03-23T01:50:30;33.00;;;5.95;;
29314;SDS011;16320;53.954;9.506;2024-03-23T01:52:59;44.92;;;5.45;;
29314;SDS011;16320;53.954;9.506;2024-03-23T01:55:31;30.42;;;4.70;;
29314;SDS011;16320;53.954;9.506;2024-03-23T01:57:58;29.88;;;4.65;;
29314;SDS011;16320;53.954;9.506;2024-03-23T02:00:25;25.90;;;4.65;;
29314;SDS011;16320;53.954;9.506;2024-03-23T02:02:53;29.13;;;5.15;;
29314;SDS011;16320;53.954;9.506;2024-03-23T02:05:21;38.55;;;5.10;;
29314;SDS011;16320;53.954;9.506;2024-03-23T02:07:47;25.10;;;4.00;;
29314;SDS011;16320;53.954;9.506;2024-03-23T02:10:14;34.08;;;4.93;;
29314;SDS011;16320;53.954;9.506;2024-03-23T02:12:40;38.22;;;5.38;;
29314;SDS011;16320;53.954;9.506;2024-03-23T02:15:08;31.63;;;4.45;;
29314;SDS011;16320;53.954;9.506;2024-03-23T02:17:35;30.20;;;4.78;;
29314;SDS011;16320;53.954;9.506;2024-03-23T02:20:02;33.15;;;5.68;;
29314;SDS011;16320;53.954;9.506;2024-03-23T02:22:38;36.63;;;6.68;;
29314;SDS011;16320;53.954;9.506;2024-03-23T02:25:05;31.08;;;5.18;;
29314;SDS011;16320;53.954;9.506;2024-03-23T02:27:32;28.80;;;5.00;;
29314;SDS011;16320;53.954;9.506;2024-03-23T02:30:01;29.17;;;4.55;;
29314;SDS011;16320;53.954;9.506;2024-03-23T02:32:28;33.05;;;4.88;;
29314;SDS011;16320;53.954;9.506;2024-03-23T02:34:55;39.13;;;7.05;;
29314;SDS011;16320;53.954;9.506;2024-03-23T02:37:21;32.85;;;5.88;;
29314;SDS011;16320;53.954;9.506;2024-03-23T02:39:48;37.83;;;6.18;;
29314;SDS011;16320;53.954;9.506;2024-03-23T02:42:14;34.13;;;6.45;;
29314;SDS011;16320;53.954;9.506;2024-03-23T02:44:43;41.58;;;7.10;;
29314;SDS011;16320;53.954;9.506;2024-03-23T02:47:10;30.63;;;6.22;;
29314;SDS011;16320;53.954;9.506;2024-03-23T02:49:37;32.72;;;5.18;;
29314;SDS011;16320;53.954;9.506;2024-03-23T02:52:03;30.55;;;4.45;;
29314;SDS011;16320;53.954;9.506;2024-03-23T02:54:30;23.17;;;6.20;;
29314;SDS011;16320;53.954;9.506;2024-03-23T02:56:57;33.50;;;5.25;;
29314;SDS011;16320;53.954;9.506;2024-03-23T02:59:24;34.78;;;5.85;;
29314;SDS011;16320;53.954;9.506;2024-03-23T03:01:50;39.13;;;6.40;;
29314;SDS011;16320;53.954;9.506;2024-03-23T03:04:18;31.70;;;5.30;;
29314;SDS011;16320;53.954;9.506;2024-03-23T03:06:47;35.78;;;6.43;;
29314;SDS011;16320;53.954;9.506;2024-03-23T03:09:16;34.42;;;4.82;;
29314;SDS011;16320;53.954;9.506;2024-03-23T03:11:42;36.17;;;5.32;;
29314;SDS011;16320;53.954;9.506;2024-03-23T03:14:09;31.85;;;6.43;;
29314;SDS011;16320;53.954;9.506;2024-03-23T03:16:36;33.92;;;4.47;;
29314;SDS011;16320;53.954;9.506;2024-03-23T03:19:03;30.45;;;4.93;;
29314;SDS011;16320;53.954;9.506;2024-03-23T03:21:29;31.98;;;4.70;;
29314;SDS011;16320;53.954;9.506;2024-03-23T03:23:57;23.35;;;4.25;;
29314;SDS011;16320;53.954;9.506;2024-03-23T03:26:23;36.92;;;5.43;;
29314;SDS011;16320;53.954;9.506;2024-03-23T03:28:51;33.38;;;5.35;;
29314;SDS011;16320;53.954;9.506;2024-03-23T03:31:17;40.72;;;5.38;;
29314;SDS011;16320;53.954;9.506;2024-03-23T03:33:46;30.98;;;4.80;;
29314;SDS011;16320;53.954;9.506;2024-03-23T03:36:12;29.48;;;5.20;;
29314;SDS011;16320;53.954;9.506;2024-03-23T03:38:39;31.98;;;5.20;;
29314;SDS011;16320;53.954;9.506;2024-03-23T03:41:05;32.08;;;4.45;;
29314;SDS011;16320;53.954;9.506;2024-03-23T03:43:32;32.10;;;5.78;;
29314;SDS011;16320;53.954;9.506;2024-03-23T03:45:59;36.35;;;6.70;;
29314;SDS011;16320;53.954;9.506;2024-03-23T03:48:28;36.17;;;5.95;;
29314;SDS011;16320;53.954;9.506;2024-03-23T03:50:54;39.53;;;5.10;;
29314;SDS011;16320;53.954;9.506;2024-03-23T03:53:22;33.55;;;4.07;;
29314;SDS011;16320;53.954;9.506;2024-03-23T03:55:48;40.05;;;5.80;;
29314;SDS011;16320;53.954;9.506;2024-03-23T03:58:15;41.67;;;5.53;;
29314;SDS011;16320;53.954;9.506;2024-03-23T04:00:41;28.30;;;5.55;;
29314;SDS011;16320;53.954;9.506;2024-03-23T04:03:09;34.40;;;5.28;;
29314;SDS011;16320;53.954;9.506;2024-03-23T04:05:36;35.67;;;5.20;;
29314;SDS011;16320;53.954;9.506;2024-03-23T04:08:03;30.05;;;4.95;;
29314;SDS011;16320;53.954;9.506;2024-03-23T04:10:34;23.90;;;4.50;;
29314;SDS011;16320;53.954;9.506;2024-03-23T04:13:02;23.73;;;4.68;;
29314;SDS011;16320;53.954;9.506;2024-03-23T04:15:30;37.65;;;6.15;;
29314;SDS011;16320;53.954;9.506;2024-03-23T04:17:57;27.73;;;5.15;;
29314;SDS011;16320;53.954;9.506;2024-03-23T04:20:25;24.75;;;5.97;;
29314;SDS011;16320;53.954;9.506;2024-03-23T04:22:52;27.95;;;5.22;;
29314;SDS011;16320;53.954;9.506;2024-03-23T04:25:19;41.97;;;6.25;;
29314;SDS011;16320;53.954;9.506;2024-03-23T04:27:46;29.85;;;5.13;;
29314;SDS011;16320;53.954;9.506;2024-03-23T04:30:14;27.70;;;5.10;;
29314;SDS011;16320;53.954;9.506;2024-03-23T04:32:41;37.17;;;5.43;;
29314;SDS011;16320;53.954;9.506;2024-03-23T04:35:08;27.30;;;5.40;;
29314;SDS011;16320;53.954;9.506;2024-03-23T04:37:36;33.05;;;4.63;;
29314;SDS011;16320;53.954;9.506;2024-03-23T04:40:06;38.03;;;6.55;;
29314;SDS011;16320;53.954;9.506;2024-03-23T04:42:33;35.45;;;5.05;;
29314;SDS011;16320;53.954;9.506;2024-03-23T04:45:01;28.75;;;5.65;;
29314;SDS011;16320;53.954;9.506;2024-03-23T04:47:32;36.47;;;6.00;;
29314;SDS011;16320;53.954;9.506;2024-03-23T04:50:01;33.88;;;6.07;;
29314;SDS011;16320;53.954;9.506;2024-03-23T04:52:30;28.88;;;6.70;;
29314;SDS011;16320;53.954;9.506;2024-03-23T04:54:58;32.38;;;5.97;;
29314;SDS011;16320;53.954;9.506;2024-03-23T04:57:25;30.17;;;5.75;;
29314;SDS011;16320;53.954;9.506;2024-03-23T04:59:52;29.00;;;5.25;;
29314;SDS011;16320;53.954;9.506;2024-03-23T05:02:18;40.95;;;5.57;;
29314;SDS011;16320;53.954;9.506;2024-03-23T05:04:45;46.50;;;6.05;;
29314;SDS011;16320;53.954;9.506;2024-03-23T05:07:13;31.00;;;5.45;;
29314;SDS011;16320;53.954;9.506;2024-03-23T05:09:40;52.42;;;6.55;;
29314;SDS011;16320;53.954;9.506;2024-03-23T05:12:07;34.08;;;6.63;;
29314;SDS011;16320;53.954;9.506;2024-03-23T05:14:34;39.42;;;6.22;;
29314;SDS011;16320;53.954;9.506;2024-03-23T05:17:00;28.35;;;6.15;;
29314;SDS011;16320;53.954;9.506;2024-03-23T05:19:28;36.55;;;7.25;;
29314;SDS011;16320;53.954;9.506;2024-03-23T05:21:57;37.35;;;7.10;;
29314;SDS011;16320;53.954;9.506;2024-03-23T05:24:25;41.28;;;7.15;;
29314;SDS011;16320;53.954;9.506;2024-03-23T05:26:51;33.67;;;7.05;;
29314;SDS011;16320;53.954;9.506;2024-03-23T05:29:20;28.08;;;6.70;;
29314;SDS011;16320;53.954;9.506;2024-03-23T05:31:49;43.65;;;7.07;;
29314;SDS011;16320;53.954;9.506;2024-03-23T05:34:18;34.00;;;6.22;;
29314;SDS011;16320;53.954;9.506;2024-03-23T05:36:44;43.30;;;7.40;;
29314;SDS011;16320;53.954;9.506;2024-03-23T05:39:14;30.95;;;6.07;;
29314;SDS011;16320;53.954;9.506;2024-03-23T05:41:41;33.05;;;5.78;;
29314;SDS011;16320;53.954;9.506;2024-03-23T05:44:09;33.13;;;5.85;;
29314;SDS011;16320;53.954;9.506;2024-03-23T05:46:36;31.33;;;5.18;;
29314;SDS011;16320;53.954;9.506;2024-03-23T05:49:03;33.65;;;5.80;;
29314;SDS011;16320;53.954;9.506;2024-03-23T05:51:30;34.78;;;7.13;;
29314;SDS011;16320;53.954;9.506;2024-03-23T05:53:57;37.85;;;6.80;;
29314;SDS011;16320;53.954;9.506;2024-03-23T05:56:24;42.70;;;7.65;;
29314;SDS011;16320;53.954;9.506;2024-03-23T05:58:51;35.00;;;6.13;;
29314;SDS011;16320;53.954;9.506;2024-03-23T06:01:18;37.50;;;6.20;;
29314;SDS011;16320;53.954;9.506;2024-03-23T06:03:44;49.70;;;6.60;;
29314;SDS011;16320;53.954;9.506;2024-03-23T06:06:11;38.38;;;6.43;;
29314;SDS011;16320;53.954;9.506;2024-03-23T06:08:38;32.55;;;6.13;;
29314;SDS011;16320;53.954;9.506;2024-03-23T06:11:08;42.22;;;5.85;;
29314;SDS011;16320;53.954;9.506;2024-03-23T06:14:03;27.20;;;5.20;;
29314;SDS011;16320;53.954;9.506;2024-03-23T06:16:31;34.33;;;5.53;;
29314;SDS011;16320;53.954;9.506;2024-03-23T06:18:57;34.78;;;5.78;;
29314;SDS011;16320;53.954;9.506;2024-03-23T06:21:32;38.33;;;7.20;;
29314;SDS011;16320;53.954;9.506;2024-03-23T06:23:59;35.28;;;6.43;;
29314;SDS011;16320;53.954;9.506;2024-03-23T06:26:26;33.97;;;7.40;;
29314;SDS011;16320;53.954;9.506;2024-03-23T06:28:52;31.13;;;6.05;;
29314;SDS011;16320;53.954;9.506;2024-03-23T06:31:19;36.80;;;6.35;;
29314;SDS011;16320;53.954;9.506;2024-03-23T06:33:45;25.92;;;6.28;;
29314;SDS011;16320;53.954;9.506;2024-03-23T06:36:13;39.45;;;6.18;;
29314;SDS011;16320;53.954;9.506;2024-03-23T06:38:42;36.83;;;6.60;;
29314;SDS011;16320;53.954;9.506;2024-03-23T06:41:11;25.23;;;5.75;;
29314;SDS011;16320;53.954;9.506;2024-03-23T06:43:37;39.63;;;6.32;;
29314;SDS011;16320;53.954;9.506;2024-03-23T06:46:05;30.33;;;5.63;;
29314;SDS011;16320;53.954;9.506;2024-03-23T06:48:32;30.65;;;5.38;;
29314;SDS011;16320;53.954;9.506;2024-03-23T06:50:59;33.65;;;5.60;;
29314;SDS011;16320;53.954;9.506;2024-03-23T06:53:25;23.38;;;5.97;;
29314;SDS011;16320;53.954;9.506;2024-03-23T06:55:53;33.35;;;5.75;;
29314;SDS011;16320;53.954;9.506;2024-03-23T06:58:20;31.45;;;5.60;;
29314;SDS011;16320;53.954;9.506;2024-03-23T07:00:48;35.83;;;6.50;;
29314;SDS011;16320;53.954;9.506;2024-03-23T07:03:15;22.05;;;5.30;;
29314;SDS011;16320;53.954;9.506;2024-03-23T07:05:43;44.20;;;6.72;;
29314;SDS011;16320;53.954;9.506;2024-03-23T07:08:11;27.83;;;6.05;;
29314;SDS011;16320;53.954;9.506;2024-03-23T07:10:39;51.13;;;6.82;;
29314;SDS011;16320;53.954;9.506;2024-03-23T07:13:07;23.17;;;5.55;;
29314;SDS011;16320;53.954;9.506;2024-03-23T07:15:34;31.58;;;5.80;;
29314;SDS011;16320;53.954;9.506;2024-03-23T07:18:02;28.05;;;6.10;;
29314;SDS011;16320;53.954;9.506;2024-03-23T07:20:30;25.15;;;5.97;;
29314;SDS011;16320;53.954;9.506;2024-03-23T07:22:56;30.38;;;5.68;;
29314;SDS011;16320;53.954;9.506;2024-03-23T07:25:24;37.78;;;5.72;;
29314;SDS011;16320;53.954;9.506;2024-03-23T07:27:53;31.35;;;6.03;;
29314;SDS011;16320;53.954;9.506;2024-03-23T07:30:20;22.60;;;6.45;;
29314;SDS011;16320;53.954;9.506;2024-03-23T07:32:46;26.65;;;4.40;;
29314;SDS011;16320;53.954;9.506;2024-03-23T07:35:13;25.88;;;6.57;;
29314;SDS011;16320;53.954;9.506;2024-03-23T07:37:40;27.05;;;5.47;;
29314;SDS011;16320;53.954;9.506;2024-03-23T07:40:08;29.02;;;5.63;;
29314;SDS011;16320;53.954;9.506;2024-03-23T07:42:35;22.08;;;4.97;;
29314;SDS011;16320;53.954;9.506;2024-03-23T07:45:03;27.88;;;6.07;;
29314;SDS011;16320;53.954;9.506;2024-03-23T07:47:30;36.40;;;5.03;;
29314;SDS011;16320;53.954;9.506;2024-03-23T07:49:58;29.55;;;5.68;;
29314;SDS011;16320;53.954;9.506;2024-03-23T07:52:24;27.70;;;4.75;;
29314;SDS011;16320;53.954;9.506;2024-03-23T07:54:55;25.95;;;5.15;;
29314;SDS011;16320;53.954;9.506;2024-03-23T07:57:21;32.53;;;7.97;;
29314;SDS011;16320;53.954;9.506;2024-03-23T07:59:48;28.55;;;5.28;;
29314;SDS011;16320;53.954;9.506;2024-03-23T08:02:14;26.08;;;4.50;;
29314;SDS011;16320;53.954;9.506;2024-03-23T08:04:41;23.73;;;4.80;;
29314;SDS011;16320;53.954;9.506;2024-03-23T08:07:08;24.63;;;4.63;;
29314;SDS011;16320;53.954;9.506;2024-03-23T08:09:35;26.05;;;5.05;;
29314;SDS011;16320;53.954;9.506;2024-03-23T08:12:03;25.98;;;4.60;;
29314;SDS011;16320;53.954;9.506;2024-03-23T08:14:30;22.40;;;4.30;;
29314;SDS011;16320;53.954;9.506;2024-03-23T08:16:57;33.20;;;5.30;;
29314;SDS011;16320;53.954;9.506;2024-03-23T08:19:25;25.08;;;4.68;;
29314;SDS011;16320;53.954;9.506;2024-03-23T08:21:52;25.08;;;4.13;;
29314;SDS011;16320;53.954;9.506;2024-03-23T08:24:19;23.17;;;4.50;;
29314;SDS011;16320;53.954;9.506;2024-03-23T08:26:46;24.23;;;4.43;;
29314;SDS011;16320;53.954;9.506;2024-03-23T08:29:13;19.60;;;3.95;;
29314;SDS011;16320;53.954;9.506;2024-03-23T08:31:40;11.13;;;3.42;;
29314;SDS011;16320;53.954;9.506;2024-03-23T08:34:06;18.48;;;3.15;;
29314;SDS011;16320;53.954;9.506;2024-03-23T08:36:33;25.40;;;4.18;;
29314;SDS011;16320;53.954;9.506;2024-03-23T08:39:01;19.30;;;4.82;;
29314;SDS011;16320;53.954;9.506;2024-03-23T08:41:28;22.17;;;4.93;;
29314;SDS011;16320;53.954;9.506;2024-03-23T08:43:54;18.17;;;4.30;;
29314;SDS011;16320;53.954;9.506;2024-03-23T08:46:22;23.73;;;5.60;;
29314;SDS011;16320;53.954;9.506;2024-03-23T08:48:50;25.55;;;6.40;;
29314;SDS011;16320;53.954;9.506;2024-03-23T08:51:18;25.33;;;5.45;;
29314;SDS011;16320;53.954;9.506;2024-03-23T08:53:45;21.13;;;5.13;;
29314;SDS011;16320;53.954;9.506;2024-03-23T08:56:19;18.10;;;4.28;;
29314;SDS011;16320;53.954;9.506;2024-03-23T08:58:56;22.80;;;4.27;;
29314;SDS011;16320;53.954;9.506;2024-03-23T09:01:23;24.60;;;5.72;;
29314;SDS011;16320;53.954;9.506;2024-03-23T09:03:51;21.38;;;3.85;;
29314;SDS011;16320;53.954;9.506;2024-03-23T09:06:18;23.40;;;3.67;;
29314;SDS011;16320;53.954;9.506;2024-03-23T09:08:45;19.92;;;3.75;;
29314;SDS011;16320;53.954;9.506;2024-03-23T09:11:23;28.90;;;5.00;;
29314;SDS011;16320;53.954;9.506;2024-03-23T09:13:59;20.75;;;3.28;;
29314;SDS011;16320;53.954;9.506;2024-03-23T09:16:26;20.15;;;4.35;;
29314;SDS011;16320;53.954;9.506;2024-03-23T09:18:52;22.65;;;3.60;;
29314;SDS011;16320;53.954;9.506;2024-03-23T09:21:19;18.30;;;2.92;;
29314;SDS011;16320;53.954;9.506;2024-03-23T09:23:52;12.68;;;2.83;;
29314;SDS011;16320;53.954;9.506;2024-03-23T09:26:51;16.33;;;3.13;;
29314;SDS011;16320;53.954;9.506;2024-03-23T09:29:17;16.67;;;3.45;;
29314;SDS011;16320;53.954;9.506;2024-03-23T09:31:45;13.98;;;2.63;;
29314;SDS011;16320;53.954;9.506;2024-03-23T09:34:11;18.73;;;2.83;;
29314;SDS011;16320;53.954;9.506;2024-03-23T09:36:38;18.73;;;3.47;;
29314;SDS011;16320;53.954;9.506;2024-03-23T09:39:04;15.68;;;2.53;;
29314;SDS011;16320;53.954;9.506;2024-03-23T09:41:34;15.10;;;2.53;;
29314;SDS011;16320;53.954;9.506;2024-03-23T09:44:02;13.10;;;2.92;;
29314;SDS011;16320;53.954;9.506;2024-03-23T09:46:31;7.35;;;1.63;;
29314;SDS011;16320;53.954;9.506;2024-03-23T09:49:00;17.00;;;2.47;;
29314;SDS011;16320;53.954;9.506;2024-03-23T09:51:30;10.77;;;2.30;;
29314;SDS011;16320;53.954;9.506;2024-03-23T09:53:56;10.68;;;1.85;;
29314;SDS011;16320;53.954;9.506;2024-03-23T09:56:23;18.98;;;3.05;;
29314;SDS011;16320;53.954;9.506;2024-03-23T09:58:50;19.85;;;2.55;;
29314;SDS011;16320;53.954;9.506;2024-03-23T10:01:17;10.90;;;1.95;;
29314;SDS011;16320;53.954;9.506;2024-03-23T10:03:44;17.17;;;2.28;;
29314;SDS011;16320;53.954;9.506;2024-03-23T10:06:12;14.43;;;2.22;;
29314;SDS011;16320;53.954;9.506;2024-03-23T10:08:39;16.52;;;2.58;;
29314;SDS011;16320;53.954;9.506;2024-03-23T10:11:14;12.63;;;2.05;;
29314;SDS011;16320;53.954;9.506;2024-03-23T10:13:42;13.70;;;2.38;;
29314;SDS011;16320;53.954;9.506;2024-03-23T10:16:12;14.93;;;2.03;;
29314;SDS011;16320;53.954;9.506;2024-03-23T10:18:46;12.90;;;1.77;;
29314;SDS011;16320;53.954;9.506;2024-03-23T10:21:14;16.98;;;2.00;;
29314;SDS011;16320;53.954;9.506;2024-03-23T10:23:43;18.30;;;3.25;;
29314;SDS011;16320;53.954;9.506;2024-03-23T10:28:52;14.15;;;2.15;;
29314;SDS011;16320;53.954;9.506;2024-03-23T10:31:38;17.52;;;1.83;;
29314;SDS011;16320;53.954;9.506;2024-03-23T10:34:07;13.30;;;1.92;;
29314;SDS011;16320;53.954;9.506;2024-03-23T10:36:35;9.80;;;1.90;;
29314;SDS011;16320;53.954;9.506;2024-03-23T10:39:07;14.20;;;2.05;;
29314;SDS011;16320;53.954;9.506;2024-03-23T10:41:34;10.73;;;1.98;;
29314;SDS011;16320;53.954;9.506;2024-03-23T10:44:02;10.10;;;1.83;;
29314;SDS011;16320;53.954;9.506;2024-03-23T10:46:32;13.30;;;1.83;;
29314;SDS011;16320;53.954;9.506;2024-03-23T10:48:59;10.95;;;2.08;;
29314;SDS011;16320;53.954;9.506;2024-03-23T10:51:26;12.60;;;2.17;;
29314;SDS011;16320;53.954;9.506;2024-03-23T10:53:52;10.23;;;1.70;;
29314;SDS011;16320;53.954;9.506;2024-03-23T10:56:22;11.90;;;1.35;;
29314;SDS011;16320;53.954;9.506;2024-03-23T10:58:49;8.25;;;1.63;;
29314;SDS011;16320;53.954;9.506;2024-03-23T11:01:18;8.98;;;1.92;;
29314;SDS011;16320;53.954;9.506;2024-03-23T11:03:45;13.05;;;2.00;;
29314;SDS011;16320;53.954;9.506;2024-03-23T11:09:04;11.07;;;2.00;;
29314;SDS011;16320;53.954;9.506;2024-03-23T11:12:38;6.50;;;1.15;;
29314;SDS011;16320;53.954;9.506;2024-03-23T11:15:01;10.73;;;1.58;;
29314;SDS011;16320;53.954;9.506;2024-03-23T11:17:31;10.18;;;1.40;;
29314;SDS011;16320;53.954;9.506;2024-03-23T11:19:59;11.02;;;1.40;;
29314;SDS011;16320;53.954;9.506;2024-03-23T11:25:16;15.13;;;1.73;;
29314;SDS011;16320;53.954;9.506;2024-03-23T11:27:47;11.30;;;2.17;;
29314;SDS011;16320;53.954;9.506;2024-03-23T11:30:19;12.65;;;1.67;;
29314;SDS011;16320;53.954;9.506;2024-03-23T11:32:49;16.33;;;1.63;;
29314;SDS011;16320;53.954;9.506;2024-03-23T11:35:36;10.63;;;1.67;;
29314;SDS011;16320;53.954;9.506;2024-03-23T11:38:11;13.63;;;1.80;;
29314;SDS011;16320;53.954;9.506;2024-03-23T11:40:50;16.00;;;2.05;;
29314;SDS011;16320;53.954;9.506;2024-03-23T11:43:17;16.53;;;2.03;;
29314;SDS011;16320;53.954;9.506;2024-03-23T11:48:21;19.13;;;2.20;;
29314;SDS011;16320;53.954;9.506;2024-03-23T11:50:51;10.07;;;2.17;;
29314;SDS011;16320;53.954;9.506;2024-03-23T11:53:23;11.18;;;1.45;;
29314;SDS011;16320;53.954;9.506;2024-03-23T11:55:53;11.63;;;2.10;;
29314;SDS011;16320;53.954;9.506;2024-03-23T11:58:26;8.15;;;1.77;;
29314;SDS011;16320;53.954;9.506;2024-03-23T12:01:00;9.77;;;2.20;;
29314;SDS011;16320;53.954;9.506;2024-03-23T12:03:28;8.75;;;1.42;;
29314;SDS011;16320;53.954;9.506;2024-03-23T12:06:01;7.53;;;1.77;;
29314;SDS011;16320;53.954;9.506;2024-03-23T12:08:33;9.25;;;1.73;;
29314;SDS011;16320;53.954;9.506;2024-03-23T12:11:15;12.40;;;1.75;;
29314;SDS011;16320;53.954;9.506;2024-03-23T12:13:43;15.13;;;1.77;;
29314;SDS011;16320;53.954;9.506;2024-03-23T12:18:49;11.23;;;1.83;;
29314;SDS011;16320;53.954;9.506;2024-03-23T12:21:17;21.75;;;2.40;;
29314;SDS011;16320;53.954;9.506;2024-03-23T12:23:43;7.05;;;1.70;;
29314;SDS011;16320;53.954;9.506;2024-03-23T12:26:12;7.15;;;1.67;;
29314;SDS011;16320;53.954;9.506;2024-03-23T12:28:38;17.17;;;2.97;;
29314;SDS011;16320;53.954;9.506;2024-03-23T12:31:06;16.08;;;2.00;;
29314;SDS011;16320;53.954;9.506;2024-03-23T12:33:32;14.45;;;1.83;;
29314;SDS011;16320;53.954;9.506;2024-03-23T12:35:59;16.02;;;1.50;;
29314;SDS011;16320;53.954;9.506;2024-03-23T12:38:25;10.13;;;1.58;;
29314;SDS011;16320;53.954;9.506;2024-03-23T12:40:53;11.23;;;1.83;;
29314;SDS011;16320;53.954;9.506;2024-03-23T12:43:19;11.50;;;2.03;;
29314;SDS011;16320;53.954;9.506;2024-03-23T12:45:46;10.05;;;2.92;;
29314;SDS011;16320;53.954;9.506;2024-03-23T12:48:13;10.52;;;2.00;;
29314;SDS011;16320;53.954;9.506;2024-03-23T12:50:42;7.20;;;1.33;;
29314;SDS011;16320;53.954;9.506;2024-03-23T12:53:08;18.45;;;3.28;;
29314;SDS011;16320;53.954;9.506;2024-03-23T12:55:35;13.32;;;2.15;;
29314;SDS011;16320;53.954;9.506;2024-03-23T12:58:01;9.32;;;1.60;;
29314;SDS011;16320;53.954;9.506;2024-03-23T13:00:30;12.10;;;1.67;;
29314;SDS011;16320;53.954;9.506;2024-03-23T13:02:56;7.88;;;1.45;;
29314;SDS011;16320;53.954;9.506;2024-03-23T13:05:23;14.98;;;1.98;;
29314;SDS011;16320;53.954;9.506;2024-03-23T13:07:50;13.20;;;1.48;;
29314;SDS011;16320;53.954;9.506;2024-03-23T13:10:17;6.40;;;1.60;;
29314;SDS011;16320;53.954;9.506;2024-03-23T13:12:43;20.17;;;3.20;;
29314;SDS011;16320;53.954;9.506;2024-03-23T13:15:10;10.05;;;2.10;;
29314;SDS011;16320;53.954;9.506;2024-03-23T13:17:36;18.35;;;2.97;;
29314;SDS011;16320;53.954;9.506;2024-03-23T13:20:03;14.43;;;3.40;;
29314;SDS011;16320;53.954;9.506;2024-03-23T13:22:30;24.60;;;5.75;;
29314;SDS011;16320;53.954;9.506;2024-03-23T13:24:58;14.05;;;2.60;;
29314;SDS011;16320;53.954;9.506;2024-03-23T13:27:25;10.13;;;2.28;;
29314;SDS011;16320;53.954;9.506;2024-03-23T13:29:52;10.90;;;2.13;;
29314;SDS011;16320;53.954;9.506;2024-03-23T13:32:18;13.15;;;2.28;;
29314;SDS011;16320;53.954;9.506;2024-03-23T13:34:45;11.77;;;2.33;;
29314;SDS011;16320;53.954;9.506;2024-03-23T13:37:15;13.40;;;3.15;;
29314;SDS011;16320;53.954;9.506;2024-03-23T13:39:43;15.43;;;2.60;;
29314;SDS011;16320;53.954;9.506;2024-03-23T13:42:09;16.85;;;3.10;;
29314;SDS011;16320;53.954;9.506;2024-03-23T13:44:37;14.38;;;2.55;;
29314;SDS011;16320;53.954;9.506;2024-03-23T13:47:03;17.25;;;1.85;;
29314;SDS011;16320;53.954;9.506;2024-03-23T13:49:31;12.38;;;1.83;;
29314;SDS011;16320;53.954;9.506;2024-03-23T13:51:57;10.68;;;2.25;;
29314;SDS011;16320;53.954;9.506;2024-03-23T13:54:25;8.70;;;1.50;;
29314;SDS011;16320;53.954;9.506;2024-03-23T13:56:53;6.65;;;1.35;;
29314;SDS011;16320;53.954;9.506;2024-03-23T13:59:23;15.70;;;2.05;;
29314;SDS011;16320;53.954;9.506;2024-03-23T14:01:55;11.38;;;2.33;;
29314;SDS011;16320;53.954;9.506;2024-03-23T14:04:28;14.30;;;1.98;;
29314;SDS011;16320;53.954;9.506;2024-03-23T14:06:55;10.10;;;1.92;;
29314;SDS011;16320;53.954;9.506;2024-03-23T14:09:24;10.27;;;1.33;;
29314;SDS011;16320;53.954;9.506;2024-03-23T14:11:51;13.38;;;2.17;;
29314;SDS011;16320;53.954;9.506;2024-03-23T14:14:20;12.38;;;2.28;;
29314;SDS011;16320;53.954;9.506;2024-03-23T14:16:47;20.45;;;2.00;;
29314;SDS011;16320;53.954;9.506;2024-03-23T14:19:16;14.07;;;3.50;;
29314;SDS011;16320;53.954;9.506;2024-03-23T14:21:45;11.02;;;2.42;;
29314;SDS011;16320;53.954;9.506;2024-03-23T14:24:16;16.98;;;2.15;;
29314;SDS011;16320;53.954;9.506;2024-03-23T14:26:44;13.00;;;2.08;;
29314;SDS011;16320;53.954;9.506;2024-03-23T14:29:12;16.45;;;2.15;;
29314;SDS011;16320;53.954;9.506;2024-03-23T14:31:38;15.95;;;2.83;;
29314;SDS011;16320;53.954;9.506;2024-03-23T14:34:05;14.70;;;2.08;;
29314;SDS011;16320;53.954;9.506;2024-03-23T14:36:32;12.15;;;1.85;;
29314;SDS011;16320;53.954;9.506;2024-03-23T14:38:59;13.38;;;2.35;;
29314;SDS011;16320;53.954;9.506;2024-03-23T14:41:26;12.27;;;2.17;;
29314;SDS011;16320;53.954;9.506;2024-03-23T14:43:53;13.38;;;2.13;;
29314;SDS011;16320;53.954;9.506;2024-03-23T14:46:19;12.73;;;2.58;;
29314;SDS011;16320;53.954;9.506;2024-03-23T14:48:47;11.20;;;1.60;;
29314;SDS011;16320;53.954;9.506;2024-03-23T14:51:14;7.65;;;2.15;;
29314;SDS011;16320;53.954;9.506;2024-03-23T14:53:41;13.63;;;1.77;;
29314;SDS011;16320;53.954;9.506;2024-03-23T14:56:11;13.27;;;2.13;;
29314;SDS011;16320;53.954;9.506;2024-03-23T14:58:40;14.45;;;1.80;;
29314;SDS011;16320;53.954;9.506;2024-03-23T15:01:07;17.17;;;1.60;;
29314;SDS011;16320;53.954;9.506;2024-03-23T15:03:39;10.90;;;1.75;;
29314;SDS011;16320;53.954;9.506;2024-03-23T15:06:05;10.85;;;1.42;;
29314;SDS011;16320;53.954;9.506;2024-03-23T15:08:34;7.68;;;1.80;;
29314;SDS011;16320;53.954;9.506;2024-03-23T15:11:01;23.65;;;2.42;;
29314;SDS011;16320;53.954;9.506;2024-03-23T15:13:33;13.18;;;2.38;;
29314;SDS011;16320;53.954;9.506;2024-03-23T15:16:00;21.13;;;2.28;;
29314;SDS011;16320;53.954;9.506;2024-03-23T15:18:29;15.30;;;2.38;;
29314;SDS011;16320;53.954;9.506;2024-03-23T15:20:56;17.23;;;2.53;;
29314;SDS011;16320;53.954;9.506;2024-03-23T15:23:31;9.60;;;2.80;;
29314;SDS011;16320;53.954;9.506;2024-03-23T15:25:58;15.65;;;2.33;;
29314;SDS011;16320;53.954;9.506;2024-03-23T15:28:27;16.10;;;3.03;;
29314;SDS011;16320;53.954;9.506;2024-03-23T15:31:06;17.38;;;2.30;;
29314;SDS011;16320;53.954;9.506;2024-03-23T15:33:34;16.48;;;2.47;;
29314;SDS011;16320;53.954;9.506;2024-03-23T15:36:04;26.98;;;3.65;;
29314;SDS011;16320;53.954;9.506;2024-03-23T15:38:32;11.00;;;2.10;;
29314;SDS011;16320;53.954;9.506;2024-03-23T15:40:58;7.40;;;1.92;;
29314;SDS011;16320;53.954;9.506;2024-03-23T15:43:26;17.02;;;2.42;;
29314;SDS011;16320;53.954;9.506;2024-03-23T15:45:56;15.50;;;2.40;;
29314;SDS011;16320;53.954;9.506;2024-03-23T15:48:30;14.88;;;2.40;;